createdAt,value
2019-03-12T00:00:12.352Z,101918.08
2019-03-12T00:02:40.659Z,101915.63
2019-03-12T00:05:09.781Z,101914.23
2019-03-12T00:07:38.074Z,101916.06
2019-03-12T00:10:08.051Z,101920.52
2019-03-12T00:12:36.421Z,101919.91
2019-03-12T00:15:06.439Z,101919.01
2019-03-12T00:17:34.821Z,101913.64
2019-03-12T00:20:03.356Z,101923.20
2019-03-12T00:22:31.626Z,101921.55
2019-03-12T00:24:59.889Z,101921.98
2019-03-12T00:27:28.320Z,101925.70
2019-03-12T00:29:56.560Z,101925.44
2019-03-12T00:32:24.815Z,101922.64
2019-03-12T00:34:53.208Z,101920.31
2019-03-12T00:37:21.529Z,101928.05
2019-03-12T00:39:49.802Z,101924.78
2019-03-12T00:42:18.065Z,101922.33
2019-03-12T00:44:46.345Z,101922.33
2019-03-12T00:47:14.775Z,101919.59
2019-03-12T00:49:43.044Z,101921.94
2019-03-12T00:52:11.257Z,101918.66
2019-03-12T00:54:39.534Z,101919.64
2019-03-12T00:57:08.557Z,101926.07
2019-03-12T00:59:36.869Z,101922.05
2019-03-12T01:02:05.112Z,101915.86
2019-03-12T01:04:33.399Z,101916.09
2019-03-12T01:07:01.831Z,101918.41
2019-03-12T01:09:30.115Z,101914.93
2019-03-12T01:11:58.376Z,101911.95
2019-03-12T01:14:26.661Z,101901.84
2019-03-12T01:16:55.029Z,101895.95
2019-03-12T01:19:23.389Z,101887.91
2019-03-12T01:21:51.635Z,101882.25
2019-03-12T01:24:19.897Z,101876.59
2019-03-12T01:26:48.280Z,101872.02
2019-03-12T01:29:16.541Z,101863.17
2019-03-12T01:31:44.787Z,101872.02
2019-03-12T01:34:13.282Z,101865.43
2019-03-12T01:36:41.647Z,101868.65
2019-03-12T01:39:09.888Z,101867.25
2019-03-12T01:41:38.201Z,101867.75
2019-03-12T01:44:06.864Z,101862.09
2019-03-12T01:46:35.121Z,101863.61
2019-03-12T01:49:03.378Z,101852.62
2019-03-12T01:51:31.649Z,101847.78
2019-03-12T01:54:00.074Z,101843.70
2019-03-12T01:56:28.351Z,101838.02
2019-03-12T01:58:56.584Z,101838.45
2019-03-12T02:01:24.891Z,101833.87
2019-03-12T02:03:53.180Z,101832.77
2019-03-12T02:06:21.428Z,101820.86
2019-03-12T02:08:49.716Z,101824.61
2019-03-12T02:11:18.031Z,101820.23
2019-03-12T02:13:46.345Z,101817.80
2019-03-12T02:16:14.590Z,101818.53
2019-03-12T02:18:42.865Z,101811.27
2019-03-12T02:21:11.160Z,101807.27
2019-03-12T02:23:39.582Z,101801.61
2019-03-12T02:26:09.127Z,101791.38
2019-03-12T02:28:37.410Z,101788.10
2019-03-12T02:31:05.740Z,101791.31
2019-03-12T02:33:34.009Z,101781.28
2019-03-12T02:36:02.387Z,101784.73
2019-03-12T02:38:30.659Z,101779.82
2019-03-12T02:40:58.895Z,101776.28
2019-03-12T02:43:27.173Z,101787.52
2019-03-12T02:45:55.414Z,101768.72
2019-03-12T02:48:23.750Z,101765.14
2019-03-12T02:50:51.992Z,101766.22
2019-03-12T02:53:20.299Z,101754.18
2019-03-12T02:55:48.592Z,101752.55
2019-03-12T02:58:16.859Z,101747.63
2019-03-12T03:00:45.151Z,101743.35
2019-03-12T03:03:13.396Z,101738.17
2019-03-12T03:05:45.876Z,101733.86
2019-03-12T03:08:15.420Z,101730.59
2019-03-12T03:10:43.930Z,101720.36
2019-03-12T03:13:12.204Z,101719.50
2019-03-12T03:15:42.112Z,101718.59
2019-03-12T03:18:10.413Z,101712.38
2019-03-12T03:20:38.652Z,101712.08
2019-03-12T03:23:06.898Z,101703.72
2019-03-12T03:25:35.180Z,101707.20
2019-03-12T03:28:03.590Z,101712.25
2019-03-12T03:30:31.866Z,101705.00
2019-03-12T03:33:00.142Z,101706.54
2019-03-12T03:35:28.415Z,101701.19
2019-03-12T03:37:56.693Z,101701.42
2019-03-12T03:40:25.048Z,101693.81
2019-03-12T03:42:53.280Z,101691.88
2019-03-12T03:45:21.672Z,101689.44
2019-03-12T03:47:49.941Z,101687.53
2019-03-12T03:50:18.512Z,101685.59
2019-03-12T03:52:47.096Z,101680.72
2019-03-12T03:55:20.195Z,101675.37
2019-03-12T03:57:48.482Z,101664.08
2019-03-12T04:00:21.346Z,101666.18
2019-03-12T04:02:49.631Z,101664.55
2019-03-12T04:05:17.945Z,101657.06
2019-03-12T04:07:46.249Z,101645.47
2019-03-12T04:10:14.736Z,101647.34
2019-03-12T04:12:43.137Z,101640.96
2019-03-12T04:15:14.689Z,101636.59
2019-03-12T04:17:43.109Z,101629.84
2019-03-12T04:20:18.276Z,101626.94
2019-03-12T04:22:47.323Z,101625.66
2019-03-12T04:25:15.595Z,101620.32
2019-03-12T04:27:43.964Z,101622.69
2019-03-12T04:30:18.810Z,101616.61
2019-03-12T04:32:47.055Z,101607.26
2019-03-12T04:35:26.978Z,101601.61
2019-03-12T04:37:55.221Z,101605.86
2019-03-12T04:40:23.538Z,101594.06
2019-03-12T04:42:51.800Z,101582.84
2019-03-12T04:45:20.262Z,101576.83
2019-03-12T04:47:48.498Z,101566.26
2019-03-12T04:50:16.828Z,101560.20
2019-03-12T04:52:45.118Z,101560.09
2019-03-12T04:55:16.794Z,101554.80
2019-03-12T04:57:45.070Z,101552.25
2019-03-12T05:00:20.417Z,101548.80
2019-03-12T05:02:48.665Z,101549.45
2019-03-12T05:05:17.057Z,101547.08
2019-03-12T05:07:45.299Z,101545.80
2019-03-12T05:10:15.389Z,101534.92
2019-03-12T05:12:43.719Z,101531.66
2019-03-12T05:15:17.126Z,101527.14
2019-03-12T05:17:45.827Z,101520.45
2019-03-12T05:20:15.150Z,101511.09
2019-03-12T05:22:43.552Z,101507.09
2019-03-12T05:25:13.641Z,101495.91
2019-03-12T05:27:41.870Z,101489.78
2019-03-12T05:30:17.897Z,101487.70
2019-03-12T05:32:46.143Z,101488.55
2019-03-12T05:35:14.449Z,101477.67
2019-03-12T05:37:42.697Z,101473.66
2019-03-12T05:40:12.545Z,101473.20
2019-03-12T05:42:40.859Z,101467.08
2019-03-12T05:45:11.644Z,101468.82
2019-03-12T05:47:39.922Z,101459.75
2019-03-12T05:50:13.419Z,101452.28
2019-03-12T05:52:41.659Z,101443.27
2019-03-12T05:55:29.353Z,101458.08
2019-03-12T05:57:57.638Z,101452.29
2019-03-12T06:00:27.589Z,101442.63
2019-03-12T06:02:55.957Z,101435.80
2019-03-12T06:05:24.210Z,101432.38
2019-03-12T06:07:55.393Z,101431.98
2019-03-12T06:10:22.657Z,101417.02
2019-03-12T06:12:50.943Z,101410.61
2019-03-12T06:15:19.202Z,101415.22
2019-03-12T06:17:47.459Z,101415.81
2019-03-12T06:20:16.473Z,101414.77
2019-03-12T06:22:44.774Z,101411.55
2019-03-12T06:25:14.148Z,101414.02
2019-03-12T06:27:42.384Z,101404.41
2019-03-12T06:30:16.461Z,101402.61
2019-03-12T06:32:51.326Z,101404.55
2019-03-12T06:35:24.003Z,101390.45
2019-03-12T06:37:53.932Z,101388.41
2019-03-12T06:40:29.763Z,101379.91
2019-03-12T06:42:59.705Z,101376.23
2019-03-12T06:45:32.305Z,101376.05
2019-03-12T06:48:02.221Z,101374.76
2019-03-12T06:50:37.972Z,101366.27
2019-03-12T06:53:13.760Z,101360.44
2019-03-12T06:56:00.448Z,101356.16
2019-03-12T06:58:30.336Z,101353.02
2019-03-12T07:01:18.318Z,101360.05
2019-03-12T07:04:04.255Z,101352.05
2019-03-12T07:06:50.409Z,101364.94
2019-03-12T07:09:36.477Z,101371.09
2019-03-12T07:12:06.394Z,101368.20
2019-03-12T07:14:36.535Z,101367.44
2019-03-12T07:17:09.285Z,101364.00
2019-03-12T07:19:45.176Z,101360.02
2019-03-12T07:22:15.094Z,101354.73
2019-03-12T07:24:57.156Z,101351.28
2019-03-12T07:27:27.056Z,101344.65
2019-03-12T07:30:02.504Z,101346.79
2019-03-12T07:32:35.064Z,101346.02
2019-03-12T07:35:08.275Z,101344.50
2019-03-12T07:37:38.221Z,101335.40
2019-03-12T07:40:19.903Z,101327.13
2019-03-12T07:42:54.323Z,101323.45
2019-03-12T07:45:33.291Z,101323.78
2019-03-12T07:48:08.892Z,101317.12
2019-03-12T07:50:41.379Z,101313.97
2019-03-12T07:53:11.311Z,101297.33
2019-03-12T07:55:41.221Z,101290.36
2019-03-12T07:58:35.727Z,101283.94
2019-03-12T08:01:11.355Z,101285.34
2019-03-12T08:03:41.285Z,101281.91
2019-03-12T08:06:27.194Z,101266.90
2019-03-12T08:08:57.100Z,101269.63
2019-03-12T08:11:33.289Z,101265.38
2019-03-12T08:14:11.931Z,101247.41
2019-03-12T08:17:00.704Z,101240.19
2019-03-12T08:19:42.606Z,101226.52
2019-03-12T08:22:18.374Z,101211.05
2019-03-12T08:25:06.691Z,101195.23
2019-03-12T08:27:42.320Z,101195.23
2019-03-12T08:30:12.849Z,101176.69
2019-03-12T08:32:54.580Z,101167.86
2019-03-12T08:35:41.074Z,101163.63
2019-03-12T08:38:29.307Z,101135.72
2019-03-12T08:41:11.140Z,101122.86
2019-03-12T08:43:43.491Z,101122.86
2019-03-12T08:46:22.370Z,101103.30
2019-03-12T08:48:53.516Z,101084.76
2019-03-12T08:51:30.550Z,101057.13
2019-03-12T08:54:08.991Z,101057.13
2019-03-12T08:56:44.883Z,101045.84
2019-03-12T08:59:17.250Z,101039.95
2019-03-12T09:02:02.678Z,101032.98
2019-03-12T09:04:32.727Z,101016.88
2019-03-12T09:07:05.072Z,101022.28
2019-03-12T09:09:34.303Z,101013.96
2019-03-12T09:12:07.142Z,101005.65
2019-03-12T09:14:39.803Z,100979.56
2019-03-12T09:17:09.718Z,100996.50
2019-03-12T09:19:39.688Z,100983.90
2019-03-12T09:22:09.604Z,100973.42
2019-03-12T09:24:55.882Z,100973.42
2019-03-12T09:27:34.984Z,100946.52
2019-03-12T09:30:06.475Z,100940.03
2019-03-12T09:32:36.382Z,100940.03
2019-03-12T09:35:10.684Z,100934.91
2019-03-12T09:37:40.587Z,100934.91
2019-03-12T09:40:12.981Z,100923.59
2019-03-12T09:42:55.013Z,100921.40
2019-03-12T09:45:36.865Z,100917.34
2019-03-12T09:48:11.673Z,100917.34
2019-03-12T09:50:41.482Z,100901.20
2019-03-12T09:53:29.923Z,100898.22
2019-03-12T09:55:59.809Z,100883.39
2019-03-12T09:58:38.388Z,100880.17
2019-03-12T10:01:11.159Z,100859.70
2019-03-12T10:03:53.042Z,100858.88
2019-03-12T10:06:22.961Z,100858.29
2019-03-12T10:09:01.827Z,100850.19
2019-03-12T10:11:31.872Z,100850.16
2019-03-12T10:14:16.843Z,100836.41
2019-03-12T10:16:52.610Z,100846.64
2019-03-12T10:19:40.983Z,100826.97
2019-03-12T10:22:10.880Z,100825.33
2019-03-12T10:24:49.680Z,100795.69
2019-03-12T10:27:35.756Z,100822.09
2019-03-12T10:30:10.652Z,100812.09
2019-03-12T10:32:49.590Z,100804.30
2019-03-12T10:35:19.539Z,100805.64
2019-03-12T10:37:49.458Z,100795.91
2019-03-12T10:40:19.353Z,100795.59
2019-03-12T10:43:00.370Z,100797.98
2019-03-12T10:45:30.242Z,100774.28
2019-03-12T10:48:00.195Z,100775.34
2019-03-12T10:50:28.517Z,100763.98
2019-03-12T10:52:56.847Z,100750.77
2019-03-12T10:55:25.130Z,100742.68
2019-03-12T10:57:53.384Z,100724.30
2019-03-12T11:00:22.369Z,100739.63
2019-03-12T11:02:50.576Z,100719.14
2019-03-12T11:05:18.972Z,100701.89
2019-03-12T11:07:47.614Z,100696.47
2019-03-12T11:10:19.385Z,100683.74
2019-03-12T11:12:47.625Z,100686.94
2019-03-12T11:15:16.363Z,100684.45
2019-03-12T11:17:49.878Z,100680.09
2019-03-12T11:20:23.244Z,100676.78
2019-03-12T11:22:51.494Z,100672.13
2019-03-12T11:25:27.427Z,100662.86
2019-03-12T11:27:49.757Z,100647.62
2019-03-12T11:30:19.013Z,100642.42
2019-03-12T11:32:47.248Z,100629.99
2019-03-12T11:35:15.538Z,100619.63
2019-03-12T11:37:43.913Z,100619.13
2019-03-12T11:40:15.256Z,100630.71
2019-03-12T11:42:43.502Z,100614.50
2019-03-12T11:45:17.002Z,100612.81
2019-03-12T11:47:43.166Z,100622.41
2019-03-12T11:50:16.942Z,100607.73
2019-03-12T11:52:54.142Z,100587.19
2019-03-12T11:55:15.898Z,100601.36
2019-03-12T11:57:44.209Z,100589.62
2019-03-12T12:00:34.213Z,100589.45
2019-03-12T12:03:02.472Z,100573.70
2019-03-12T12:05:30.804Z,100577.33
2019-03-12T12:07:59.091Z,100582.08
2019-03-12T12:10:27.385Z,100578.72
2019-03-12T12:12:55.627Z,100573.06
2019-03-12T12:15:23.946Z,100563.61
2019-03-12T12:17:52.211Z,100565.00
2019-03-12T12:20:29.546Z,100539.56
2019-03-12T12:22:52.321Z,100533.44
2019-03-12T12:25:20.788Z,100535.05
2019-03-12T12:27:49.147Z,100528.69
2019-03-12T12:30:22.177Z,100527.77
2019-03-12T12:32:50.466Z,100520.40
2019-03-12T12:35:18.744Z,100499.49
2019-03-12T12:37:47.073Z,100504.28
2019-03-12T12:40:22.160Z,100502.78
2019-03-12T12:42:50.466Z,100493.59
2019-03-12T12:45:30.772Z,100496.67
2019-03-12T12:47:59.025Z,100475.95
2019-03-12T12:50:27.325Z,100471.68
2019-03-12T12:52:55.566Z,100463.04
2019-03-12T12:55:23.840Z,100455.88
2019-03-12T12:57:52.100Z,100446.78
2019-03-12T13:00:28.071Z,100433.84
2019-03-12T13:02:57.257Z,100425.12
2019-03-12T13:05:25.507Z,100416.18
2019-03-12T13:07:53.994Z,100406.01
2019-03-12T13:10:32.971Z,100404.09
2019-03-12T13:13:01.378Z,100397.03
2019-03-12T13:15:29.631Z,100390.73
2019-03-12T13:17:57.926Z,100382.95
2019-03-12T13:20:26.230Z,100368.95
2019-03-12T13:22:54.503Z,100370.39
2019-03-12T13:25:22.765Z,100362.38
2019-03-12T13:27:51.012Z,100340.33
2019-03-12T13:30:21.373Z,100336.05
2019-03-12T13:32:49.638Z,100328.16
2019-03-12T13:35:18.511Z,100315.09
2019-03-12T13:37:46.867Z,100313.11
2019-03-12T13:40:20.812Z,100301.08
2019-03-12T13:42:49.161Z,100298.05
2019-03-12T13:45:20.085Z,100298.05
2019-03-12T13:47:48.396Z,100295.47
2019-03-12T13:50:16.612Z,100284.09
2019-03-12T13:52:45.006Z,100297.73
2019-03-12T13:55:15.145Z,100269.16
2019-03-12T13:57:43.473Z,100274.97
2019-03-12T14:00:23.044Z,100240.17
2019-03-12T14:02:51.404Z,100247.97
2019-03-12T14:05:19.648Z,100261.63
2019-03-12T14:07:47.888Z,100244.55
2019-03-12T14:10:23.590Z,100240.37
2019-03-12T14:12:52.937Z,100228.20
2019-03-12T14:15:29.688Z,100220.23
2019-03-12T14:17:57.911Z,100216.80
2019-03-12T14:20:46.941Z,100213.45
2019-03-12T14:23:24.341Z,100203.23
2019-03-12T14:25:52.718Z,100191.14
2019-03-12T14:28:21.035Z,100190.11
2019-03-12T14:30:49.277Z,100178.97
2019-03-12T14:33:17.575Z,100165.06
2019-03-12T14:35:51.554Z,100164.02
2019-03-12T14:38:15.806Z,100161.92
2019-03-12T14:40:44.049Z,100155.91
2019-03-12T14:43:12.312Z,100144.35
2019-03-12T14:45:42.977Z,100144.67
2019-03-12T14:48:41.159Z,100132.75
2019-03-12T14:51:30.750Z,100125.81
2019-03-12T14:54:04.859Z,100119.70
2019-03-12T14:56:34.101Z,100101.70
2019-03-12T14:59:02.535Z,100091.63
2019-03-12T15:01:30.769Z,100075.56
2019-03-12T15:03:59.246Z,100082.50
2019-03-12T15:06:27.512Z,100072.97
2019-03-12T15:08:55.785Z,100050.70
2019-03-12T15:11:24.012Z,100055.30
2019-03-12T15:13:52.342Z,100045.38
2019-03-12T15:16:20.578Z,100035.91
2019-03-12T15:18:51.793Z,100022.15
2019-03-12T15:21:18.814Z,100010.55
2019-03-12T15:23:47.082Z,100014.19
2019-03-12T15:26:15.383Z,99997.19
2019-03-12T15:28:43.658Z,99999.72
2019-03-12T15:31:11.985Z,99986.20
2019-03-12T15:33:40.249Z,99992.56
2019-03-12T15:36:08.592Z,99980.73
2019-03-12T15:38:36.822Z,99986.35
2019-03-12T15:41:05.059Z,99967.69
2019-03-12T15:43:33.405Z,99967.86
2019-03-12T15:46:01.624Z,99951.32
2019-03-12T15:48:29.871Z,99951.47
2019-03-12T15:50:58.171Z,99940.76
2019-03-12T15:53:26.422Z,99939.73
2019-03-12T15:55:55.983Z,99937.79
2019-03-12T15:58:24.365Z,99934.55
2019-03-12T16:00:52.610Z,99931.03
2019-03-12T16:03:20.973Z,99916.74
2019-03-12T16:05:49.240Z,99892.50
2019-03-12T16:08:17.471Z,99882.02
2019-03-12T16:10:57.268Z,99875.91
2019-03-12T16:13:15.751Z,99868.17
2019-03-12T16:15:44.066Z,99873.20
2019-03-12T16:18:14.526Z,99866.91
2019-03-12T16:20:42.240Z,99854.59
2019-03-12T16:23:10.497Z,99851.11
2019-03-12T16:25:38.792Z,99827.19
2019-03-12T16:28:07.076Z,99821.94
2019-03-12T16:30:35.475Z,99821.78
2019-03-12T16:33:03.706Z,99794.13
2019-03-12T16:35:31.955Z,99789.53
2019-03-12T16:38:00.238Z,99783.48
2019-03-12T16:40:28.585Z,99776.11
2019-03-12T16:42:56.812Z,99770.70
2019-03-12T16:45:25.200Z,99755.53
2019-03-12T16:47:53.428Z,99742.18
2019-03-12T16:50:21.659Z,99741.16
2019-03-12T16:52:49.914Z,99732.59
2019-03-12T16:55:18.707Z,99730.30
2019-03-12T16:57:46.992Z,99721.86
2019-03-12T17:00:22.048Z,99708.52
2019-03-12T17:02:50.313Z,99692.33
2019-03-12T17:05:18.591Z,99691.55
2019-03-12T17:07:46.971Z,99662.79
2019-03-12T17:10:16.558Z,99656.85
2019-03-12T17:12:44.785Z,99643.27
2019-03-12T17:15:15.463Z,99631.86
2019-03-12T17:17:43.750Z,99612.47
2019-03-12T17:20:13.906Z,99633.58
2019-03-12T17:22:42.335Z,99641.63
2019-03-12T17:25:11.406Z,99627.32
2019-03-12T17:27:39.700Z,99626.94
2019-03-12T17:30:11.176Z,99621.88
2019-03-12T17:32:39.457Z,99613.28
2019-03-12T17:35:10.991Z,99602.81
2019-03-12T17:37:39.334Z,99597.04
2019-03-12T17:40:15.256Z,99592.59
2019-03-12T17:42:43.970Z,99576.13
2019-03-12T17:45:14.216Z,99573.21
2019-03-12T17:47:42.489Z,99564.55
2019-03-12T17:50:12.527Z,99554.16
2019-03-12T17:52:40.763Z,99541.16
2019-03-12T17:55:14.084Z,99536.63
2019-03-12T17:57:42.502Z,99531.80
2019-03-12T18:00:16.344Z,99532.66
2019-03-12T18:02:44.590Z,99537.11
2019-03-12T18:05:13.507Z,99525.22
2019-03-12T18:07:41.768Z,99513.16
2019-03-12T18:10:12.821Z,99523.70
2019-03-12T18:12:41.075Z,99511.73
2019-03-12T18:15:12.166Z,99498.12
2019-03-12T18:17:40.594Z,99480.42
2019-03-12T18:20:11.607Z,99478.30
2019-03-12T18:22:40.568Z,99472.83
2019-03-12T18:25:14.848Z,99468.37
2019-03-12T18:27:43.068Z,99463.19
2019-03-12T18:30:16.775Z,99460.41
2019-03-12T18:32:45.037Z,99464.16
2019-03-12T18:35:13.934Z,99462.00
2019-03-12T18:37:42.207Z,99462.04
2019-03-12T18:40:16.242Z,99468.48
2019-03-12T18:42:44.528Z,99460.28
2019-03-12T18:45:18.267Z,99444.58
2019-03-12T18:47:46.531Z,99445.36
2019-03-12T18:50:16.667Z,99429.98
2019-03-12T18:52:44.920Z,99433.46
2019-03-12T18:55:37.816Z,99430.84
2019-03-12T18:58:06.198Z,99422.52
2019-03-12T19:00:35.343Z,99419.97
2019-03-12T19:03:03.700Z,99402.38
2019-03-12T19:05:32.024Z,99413.17
2019-03-12T19:08:00.302Z,99424.27
2019-03-12T19:10:28.667Z,99417.23
2019-03-12T19:12:56.919Z,99402.17
2019-03-12T19:15:25.150Z,99385.14
2019-03-12T19:17:53.601Z,99406.56
2019-03-12T19:20:21.839Z,99385.41
2019-03-12T19:22:50.168Z,99380.91
2019-03-12T19:25:23.796Z,99387.88
2019-03-12T19:27:59.691Z,99387.73
2019-03-12T19:30:22.076Z,99370.70
2019-03-12T19:32:57.679Z,99366.73
2019-03-12T19:35:27.490Z,99360.45
2019-03-12T19:37:56.575Z,99374.26
2019-03-12T19:40:41.734Z,99364.91
2019-03-12T19:43:10.028Z,99353.27
2019-03-12T19:45:38.350Z,99347.02
2019-03-12T19:48:06.728Z,99345.27
2019-03-12T19:50:35.527Z,99344.81
2019-03-12T19:53:03.822Z,99339.19
2019-03-12T19:55:43.066Z,99340.78
2019-03-12T19:58:11.021Z,99335.18
2019-03-12T20:00:39.330Z,99329.79
2019-03-12T20:03:13.346Z,99318.28
2019-03-12T20:05:37.579Z,99308.16
2019-03-12T20:08:05.881Z,99318.38
2019-03-12T20:11:00.371Z,99298.33
2019-03-12T20:13:48.084Z,99311.11
2019-03-12T20:16:36.447Z,99299.06
2019-03-12T20:19:24.706Z,99297.80
2019-03-12T20:22:10.626Z,99297.10
2019-03-12T20:24:57.201Z,99295.59
2019-03-12T20:27:52.561Z,99285.96
2019-03-12T20:30:41.837Z,99297.67
2019-03-12T20:33:31.520Z,99279.88
2019-03-12T20:36:36.674Z,99281.47
2019-03-12T20:39:20.469Z,99273.88
2019-03-12T20:42:20.656Z,99257.27
2019-03-12T20:45:11.920Z,99254.17
2019-03-12T20:48:09.041Z,99252.73
2019-03-12T20:51:13.974Z,99236.59
2019-03-12T20:54:12.693Z,99218.80
2019-03-12T20:57:17.656Z,99221.48
2019-03-12T21:00:22.864Z,99215.63
2019-03-12T21:03:27.812Z,99207.09
2019-03-12T21:06:21.840Z,99210.31
2019-03-12T21:09:17.403Z,99210.00
2019-03-12T21:12:06.899Z,99227.12
2019-03-12T21:14:43.966Z,99227.89
2019-03-12T21:17:47.547Z,99253.56
2019-03-12T21:20:50.526Z,99259.95
2019-03-12T21:23:24.784Z,99294.07
2019-03-12T21:26:28.081Z,99337.88
2019-03-12T21:29:25.580Z,99394.85
2019-03-12T21:31:53.830Z,99412.63
2019-03-12T21:34:22.066Z,99412.63
2019-03-12T21:36:50.344Z,99433.62
2019-03-12T21:39:19.014Z,99433.62
2019-03-12T21:41:47.298Z,99478.08
2019-03-12T21:44:15.706Z,99478.08
2019-03-12T21:46:44.021Z,99490.75
2019-03-12T21:49:12.304Z,99483.54
2019-03-12T21:51:43.299Z,99492.32
2019-03-12T21:54:11.578Z,99492.42
2019-03-12T21:56:39.870Z,99492.42
2019-03-12T21:59:08.184Z,99499.89
2019-03-12T22:01:36.432Z,99501.70
2019-03-12T22:04:04.925Z,99513.25
2019-03-12T22:06:36.240Z,99525.70
2019-03-12T22:09:05.714Z,99525.70
2019-03-12T22:11:38.242Z,99534.01
2019-03-12T22:14:06.504Z,99544.70
2019-03-12T22:16:34.733Z,99547.38
2019-03-12T22:19:03.006Z,99543.66
2019-03-12T22:21:49.122Z,99553.98
2019-03-12T22:24:19.425Z,99563.56
2019-03-12T22:26:47.647Z,99568.30
2019-03-12T22:29:15.955Z,99571.29
2019-03-12T22:31:44.534Z,99582.76
2019-03-12T22:34:12.840Z,99585.97
2019-03-12T22:36:41.344Z,99592.89
2019-03-12T22:39:09.869Z,99590.59
2019-03-12T22:41:38.133Z,99598.81
2019-03-12T22:44:06.508Z,99599.30
2019-03-12T22:46:34.877Z,99598.51
2019-03-12T22:49:03.127Z,99609.98
2019-03-12T22:51:33.087Z,99609.16
2019-03-12T22:54:01.440Z,99607.34
2019-03-12T22:56:29.700Z,99623.91
2019-03-12T22:58:58.165Z,99623.91
2019-03-12T23:01:26.445Z,99619.37
2019-03-12T23:03:57.000Z,99623.31
2019-03-12T23:06:28.481Z,99626.80
2019-03-12T23:08:56.663Z,99627.42
2019-03-12T23:11:24.996Z,99628.52
2019-03-12T23:13:53.328Z,99628.52
2019-03-12T23:16:21.590Z,99620.67
2019-03-12T23:18:49.890Z,99625.83
2019-03-12T23:21:18.134Z,99625.83
2019-03-12T23:23:46.424Z,99628.91
2019-03-12T23:26:14.777Z,99628.91
2019-03-12T23:28:50.202Z,99630.92
2019-03-12T23:31:45.102Z,99639.37
2019-03-12T23:34:13.447Z,99639.37
2019-03-12T23:36:41.737Z,99640.45
2019-03-12T23:39:10.028Z,99647.98
2019-03-12T23:41:38.375Z,99645.47
2019-03-12T23:44:06.865Z,99640.57
2019-03-12T23:46:35.132Z,99642.22
2019-03-12T23:49:03.444Z,99640.88
2019-03-12T23:51:31.784Z,99640.88
2019-03-12T23:54:00.200Z,99634.16
2019-03-12T23:56:28.438Z,99645.64
2019-03-12T23:58:56.754Z,99645.38
